Seward, AK

1:02 PM AKDT on April 18, 2015 (GMT -0800)
Questa Woods | | Change Station
CLOSE
Current Station
Personal Weather Station
Location: Seward, AK
Elevation: 167 ft
Nearby Weather Stations

Elev 167 ft 60.17 °N, 149.39 °W | Updated 13 seconds ago

Rain
Rain Mist
39.7 °F
Feels Like 40 °F
N
0.0
Wind Variable Wind from East
Gusts 1.0 mph

Today
High -- | Low -- °F
--% Chance of Precip.
Yesterday
High -- | Low -- °F
Precip. -- in
6:31 AM 9:23 PM
New Moon, 0% visible
Pressure 29.66 in
Visibility 4.0 miles
Clouds Overcast 3200 ft
Windchill 40 °F
Dew Point 39 °F
Humidity 97%
Rainfall 0.85 in
Snow Depth Not available.
UV 2 out of 12
Pollen Not available.
Air Quality Not available.
Flu Activity Sporadic
METAR PAWD 182053Z AUTO 14005KT 4SM RA BR OVC032 04/03 A2966 RMK AO2 SLP043 P0005 60015 T00440033 53005 TSNO

More Conditions Fewer Conditions

Pressure 29.66 in
Visibility 4.0 miles
Clouds Overcast 3200 ft
Windchill 40 °F
Dew Point 39 °F
Humidity 97%
Rainfall 0.85 in
Snow Depth Not available.
UV 2 out of 12
Pollen Not available.
Air Quality Not available.
Flu Activity Sporadic
METAR PAWD 182053Z AUTO 14005KT 4SM RA BR OVC032 04/03 A2966 RMK AO2 SLP043 P0005 60015 T00440033 53005 TSNO

More Conditions Fewer Conditions

10-Day Weather Forecast

Almanac

Astronomy

Apr. 18, 2015 Rise Set
Actual Time
Civil Twilight
Nautical Twilight
Astronomical Twilight
Moon
Length of Visible Light
Length of Day
Tomorrow will be .
, % of the Moon is Illuminated

Today's Extremes

State Highs State Lows

Community

WunderPhotos

Upload Photos

1,814,525 photos uploaded!

WunderBlogs® & News

Nearby

Air Quality

  Air Quality AQ Index Pollutant
Not available.

Snow Depth

Station Depth Elevation

Earthquake Activity

City Distance Mag. Time & Date
Minimum magnitude displayed is 2.5.

Coastal Water Temperatures

Place Temperature

Stations

Nearby Weather Stations

Station Location Temp. Windchill Dew Point Humidity Wind Precip. Elev Updated Type